sensor_id;sensor_type;location;lat;lon;timestamp;P1;durP1;ratioP1;P2;durP2;ratioP2
29380;SDS011;16364;52.490;13.326;2023-07-29T00:02:14;5.20;;;4.80;;
29380;SDS011;16364;52.490;13.326;2023-07-29T00:04:40;4.90;;;4.50;;
29380;SDS011;16364;52.490;13.326;2023-07-29T00:07:05;5.37;;;5.00;;
29380;SDS011;16364;52.490;13.326;2023-07-29T00:09:30;5.30;;;4.80;;
29380;SDS011;16364;52.490;13.326;2023-07-29T00:11:55;5.20;;;4.80;;
29380;SDS011;16364;52.490;13.326;2023-07-29T00:14:20;6.70;;;6.03;;
29380;SDS011;16364;52.490;13.326;2023-07-29T00:16:46;5.73;;;5.13;;
29380;SDS011;16364;52.490;13.326;2023-07-29T00:19:11;5.20;;;4.90;;
29380;SDS011;16364;52.490;13.326;2023-07-29T00:21:36;5.70;;;5.20;;
29380;SDS011;16364;52.490;13.326;2023-07-29T00:24:02;6.23;;;5.73;;
29380;SDS011;16364;52.490;13.326;2023-07-29T00:26:27;5.80;;;5.23;;
29380;SDS011;16364;52.490;13.326;2023-07-29T00:28:54;5.90;;;5.30;;
29380;SDS011;16364;52.490;13.326;2023-07-29T00:31:20;5.27;;;4.87;;
29380;SDS011;16364;52.490;13.326;2023-07-29T00:33:45;6.10;;;5.70;;
29380;SDS011;16364;52.490;13.326;2023-07-29T00:36:10;5.73;;;5.33;;
29380;SDS011;16364;52.490;13.326;2023-07-29T00:38:35;6.73;;;6.13;;
29380;SDS011;16364;52.490;13.326;2023-07-29T00:41:02;9.57;;;6.43;;
29380;SDS011;16364;52.490;13.326;2023-07-29T00:43:27;6.43;;;6.03;;
29380;SDS011;16364;52.490;13.326;2023-07-29T00:45:52;6.07;;;5.53;;
29380;SDS011;16364;52.490;13.326;2023-07-29T00:48:18;6.23;;;5.80;;
29380;SDS011;16364;52.490;13.326;2023-07-29T00:50:43;7.63;;;6.93;;
29380;SDS011;16364;52.490;13.326;2023-07-29T00:53:08;5.73;;;5.33;;
29380;SDS011;16364;52.490;13.326;2023-07-29T00:55:34;5.27;;;4.93;;
29380;SDS011;16364;52.490;13.326;2023-07-29T00:57:59;6.73;;;6.23;;
29380;SDS011;16364;52.490;13.326;2023-07-29T01:00:24;6.30;;;5.90;;
29380;SDS011;16364;52.490;13.326;2023-07-29T01:02:50;6.07;;;5.57;;
29380;SDS011;16364;52.490;13.326;2023-07-29T01:05:16;6.17;;;5.57;;
29380;SDS011;16364;52.490;13.326;2023-07-29T01:10:17;7.00;;;6.47;;
29380;SDS011;16364;52.490;13.326;2023-07-29T01:15:14;7.20;;;6.40;;
29380;SDS011;16364;52.490;13.326;2023-07-29T01:17:48;6.70;;;6.10;;
29380;SDS011;16364;52.490;13.326;2023-07-29T01:20:15;6.47;;;5.90;;
29380;SDS011;16364;52.490;13.326;2023-07-29T01:22:41;6.03;;;5.57;;
29380;SDS011;16364;52.490;13.326;2023-07-29T01:25:06;6.43;;;5.87;;
29380;SDS011;16364;52.490;13.326;2023-07-29T01:27:32;6.50;;;6.00;;
29380;SDS011;16364;52.490;13.326;2023-07-29T01:29:57;6.90;;;6.20;;
29380;SDS011;16364;52.490;13.326;2023-07-29T01:34:48;6.33;;;5.70;;
29380;SDS011;16364;52.490;13.326;2023-07-29T01:37:19;5.73;;;5.33;;
29380;SDS011;16364;52.490;13.326;2023-07-29T01:39:45;6.20;;;5.70;;
29380;SDS011;16364;52.490;13.326;2023-07-29T01:42:11;6.17;;;5.37;;
29380;SDS011;16364;52.490;13.326;2023-07-29T01:44:37;6.03;;;5.53;;
29380;SDS011;16364;52.490;13.326;2023-07-29T01:47:02;6.27;;;5.77;;
29380;SDS011;16364;52.490;13.326;2023-07-29T01:49:27;7.10;;;6.50;;
29380;SDS011;16364;52.490;13.326;2023-07-29T01:51:53;6.20;;;5.60;;
29380;SDS011;16364;52.490;13.326;2023-07-29T01:54:18;8.30;;;6.63;;
29380;SDS011;16364;52.490;13.326;2023-07-29T01:56:43;6.30;;;5.80;;
29380;SDS011;16364;52.490;13.326;2023-07-29T01:59:08;5.33;;;4.97;;
29380;SDS011;16364;52.490;13.326;2023-07-29T02:01:34;6.23;;;5.73;;
29380;SDS011;16364;52.490;13.326;2023-07-29T02:03:59;6.20;;;5.80;;
29380;SDS011;16364;52.490;13.326;2023-07-29T02:06:24;5.73;;;5.30;;
29380;SDS011;16364;52.490;13.326;2023-07-29T02:08:50;7.00;;;6.30;;
29380;SDS011;16364;52.490;13.326;2023-07-29T02:11:16;6.67;;;6.17;;
29380;SDS011;16364;52.490;13.326;2023-07-29T02:13:41;6.00;;;5.50;;
29380;SDS011;16364;52.490;13.326;2023-07-29T02:16:06;5.70;;;5.20;;
29380;SDS011;16364;52.490;13.326;2023-07-29T02:18:32;6.07;;;5.57;;
29380;SDS011;16364;52.490;13.326;2023-07-29T02:20:57;6.37;;;5.80;;
29380;SDS011;16364;52.490;13.326;2023-07-29T02:23:22;5.90;;;5.40;;
29380;SDS011;16364;52.490;13.326;2023-07-29T02:25:48;5.70;;;5.30;;
29380;SDS011;16364;52.490;13.326;2023-07-29T02:28:13;6.23;;;5.73;;
29380;SDS011;16364;52.490;13.326;2023-07-29T02:30:40;6.23;;;5.73;;
29380;SDS011;16364;52.490;13.326;2023-07-29T02:33:05;34.23;;;19.50;;
29380;SDS011;16364;52.490;13.326;2023-07-29T02:35:31;34.00;;;16.77;;
29380;SDS011;16364;52.490;13.326;2023-07-29T02:37:56;17.37;;;11.80;;
29380;SDS011;16364;52.490;13.326;2023-07-29T02:40:21;14.10;;;10.13;;
29380;SDS011;16364;52.490;13.326;2023-07-29T02:42:47;24.80;;;14.10;;
29380;SDS011;16364;52.490;13.326;2023-07-29T02:45:13;19.93;;;12.60;;
29380;SDS011;16364;52.490;13.326;2023-07-29T02:47:38;14.07;;;10.40;;
29380;SDS011;16364;52.490;13.326;2023-07-29T02:50:03;11.60;;;8.40;;
29380;SDS011;16364;52.490;13.326;2023-07-29T02:52:29;7.63;;;6.93;;
29380;SDS011;16364;52.490;13.326;2023-07-29T02:54:54;8.10;;;7.30;;
29380;SDS011;16364;52.490;13.326;2023-07-29T02:57:20;7.17;;;6.37;;
29380;SDS011;16364;52.490;13.326;2023-07-29T02:59:45;6.87;;;6.33;;
29380;SDS011;16364;52.490;13.326;2023-07-29T03:02:10;6.07;;;5.60;;
29380;SDS011;16364;52.490;13.326;2023-07-29T03:04:36;6.67;;;6.17;;
29380;SDS011;16364;52.490;13.326;2023-07-29T03:07:01;7.67;;;7.00;;
29380;SDS011;16364;52.490;13.326;2023-07-29T03:09:27;7.10;;;6.50;;
29380;SDS011;16364;52.490;13.326;2023-07-29T03:11:52;6.60;;;6.10;;
29380;SDS011;16364;52.490;13.326;2023-07-29T03:14:19;6.17;;;5.70;;
29380;SDS011;16364;52.490;13.326;2023-07-29T03:16:44;7.60;;;6.90;;
29380;SDS011;16364;52.490;13.326;2023-07-29T03:19:10;6.97;;;6.37;;
29380;SDS011;16364;52.490;13.326;2023-07-29T03:21:35;7.03;;;6.40;;
29380;SDS011;16364;52.490;13.326;2023-07-29T03:24:01;7.07;;;6.47;;
29380;SDS011;16364;52.490;13.326;2023-07-29T03:26:26;7.03;;;6.43;;
29380;SDS011;16364;52.490;13.326;2023-07-29T03:28:51;6.60;;;6.00;;
29380;SDS011;16364;52.490;13.326;2023-07-29T03:31:17;6.60;;;6.00;;
29380;SDS011;16364;52.490;13.326;2023-07-29T03:33:42;7.33;;;6.70;;
29380;SDS011;16364;52.490;13.326;2023-07-29T03:36:07;8.13;;;7.50;;
29380;SDS011;16364;52.490;13.326;2023-07-29T03:38:32;5.67;;;5.17;;
29380;SDS011;16364;52.490;13.326;2023-07-29T03:41:00;7.20;;;6.50;;
29380;SDS011;16364;52.490;13.326;2023-07-29T03:43:27;7.60;;;6.90;;
29380;SDS011;16364;52.490;13.326;2023-07-29T03:45:52;7.90;;;7.27;;
29380;SDS011;16364;52.490;13.326;2023-07-29T03:48:17;9.70;;;7.37;;
29380;SDS011;16364;52.490;13.326;2023-07-29T03:50:43;8.00;;;7.30;;
29380;SDS011;16364;52.490;13.326;2023-07-29T03:53:08;7.97;;;7.20;;
29380;SDS011;16364;52.490;13.326;2023-07-29T03:55:35;7.87;;;7.20;;
29380;SDS011;16364;52.490;13.326;2023-07-29T03:58:00;7.73;;;7.13;;
29380;SDS011;16364;52.490;13.326;2023-07-29T04:00:25;6.00;;;5.50;;
29380;SDS011;16364;52.490;13.326;2023-07-29T04:02:51;6.50;;;6.00;;
29380;SDS011;16364;52.490;13.326;2023-07-29T04:05:16;7.77;;;7.17;;
29380;SDS011;16364;52.490;13.326;2023-07-29T04:07:41;7.27;;;6.60;;
29380;SDS011;16364;52.490;13.326;2023-07-29T04:10:07;9.00;;;6.60;;
29380;SDS011;16364;52.490;13.326;2023-07-29T04:12:32;7.47;;;6.87;;
29380;SDS011;16364;52.490;13.326;2023-07-29T04:14:57;6.90;;;6.40;;
29380;SDS011;16364;52.490;13.326;2023-07-29T04:17:23;5.97;;;5.47;;
29380;SDS011;16364;52.490;13.326;2023-07-29T04:19:48;8.00;;;7.30;;
29380;SDS011;16364;52.490;13.326;2023-07-29T04:22:14;7.27;;;6.57;;
29380;SDS011;16364;52.490;13.326;2023-07-29T04:24:39;6.53;;;5.93;;
29380;SDS011;16364;52.490;13.326;2023-07-29T04:27:04;6.03;;;5.53;;
29380;SDS011;16364;52.490;13.326;2023-07-29T04:29:30;7.40;;;6.50;;
29380;SDS011;16364;52.490;13.326;2023-07-29T04:31:55;7.63;;;6.97;;
29380;SDS011;16364;52.490;13.326;2023-07-29T04:34:20;7.23;;;6.53;;
29380;SDS011;16364;52.490;13.326;2023-07-29T04:36:46;6.97;;;6.27;;
29380;SDS011;16364;52.490;13.326;2023-07-29T04:39:11;6.80;;;6.20;;
29380;SDS011;16364;52.490;13.326;2023-07-29T04:41:37;8.73;;;7.40;;
29380;SDS011;16364;52.490;13.326;2023-07-29T04:44:02;5.77;;;5.37;;
29380;SDS011;16364;52.490;13.326;2023-07-29T04:46:27;5.70;;;5.20;;
29380;SDS011;16364;52.490;13.326;2023-07-29T04:48:52;7.50;;;6.90;;
29380;SDS011;16364;52.490;13.326;2023-07-29T04:51:18;6.70;;;6.13;;
29380;SDS011;16364;52.490;13.326;2023-07-29T04:53:43;10.80;;;9.70;;
29380;SDS011;16364;52.490;13.326;2023-07-29T04:56:08;8.70;;;8.00;;
29380;SDS011;16364;52.490;13.326;2023-07-29T04:58:33;7.50;;;6.90;;
29380;SDS011;16364;52.490;13.326;2023-07-29T05:01:00;6.97;;;6.37;;
29380;SDS011;16364;52.490;13.326;2023-07-29T05:03:25;6.30;;;5.80;;
29380;SDS011;16364;52.490;13.326;2023-07-29T05:05:51;7.40;;;6.13;;
29380;SDS011;16364;52.490;13.326;2023-07-29T05:08:18;6.27;;;5.80;;
29380;SDS011;16364;52.490;13.326;2023-07-29T05:10:43;7.33;;;6.73;;
29380;SDS011;16364;52.490;13.326;2023-07-29T05:13:08;6.13;;;5.70;;
29380;SDS011;16364;52.490;13.326;2023-07-29T05:15:34;6.37;;;5.90;;
29380;SDS011;16364;52.490;13.326;2023-07-29T05:17:59;7.10;;;6.60;;
29380;SDS011;16364;52.490;13.326;2023-07-29T05:20:24;6.50;;;6.00;;
29380;SDS011;16364;52.490;13.326;2023-07-29T05:22:49;5.80;;;5.40;;
29380;SDS011;16364;52.490;13.326;2023-07-29T05:25:14;7.00;;;6.43;;
29380;SDS011;16364;52.490;13.326;2023-07-29T05:27:40;7.57;;;6.93;;
29380;SDS011;16364;52.490;13.326;2023-07-29T05:30:05;9.93;;;8.70;;
29380;SDS011;16364;52.490;13.326;2023-07-29T05:32:31;8.17;;;7.47;;
29380;SDS011;16364;52.490;13.326;2023-07-29T05:34:57;8.63;;;8.00;;
29380;SDS011;16364;52.490;13.326;2023-07-29T05:37:22;10.47;;;9.37;;
29380;SDS011;16364;52.490;13.326;2023-07-29T05:39:47;9.10;;;8.30;;
29380;SDS011;16364;52.490;13.326;2023-07-29T05:42:12;8.43;;;7.57;;
29380;SDS011;16364;52.490;13.326;2023-07-29T05:44:38;6.97;;;6.30;;
29380;SDS011;16364;52.490;13.326;2023-07-29T05:47:03;7.80;;;7.17;;
29380;SDS011;16364;52.490;13.326;2023-07-29T05:49:28;10.37;;;8.07;;
29380;SDS011;16364;52.490;13.326;2023-07-29T05:51:53;7.30;;;6.70;;
29380;SDS011;16364;52.490;13.326;2023-07-29T05:54:19;6.70;;;6.10;;
29380;SDS011;16364;52.490;13.326;2023-07-29T05:56:44;5.63;;;5.33;;
29380;SDS011;16364;52.490;13.326;2023-07-29T05:59:09;7.00;;;6.30;;
29380;SDS011;16364;52.490;13.326;2023-07-29T06:01:34;5.50;;;5.10;;
29380;SDS011;16364;52.490;13.326;2023-07-29T06:04:00;5.30;;;4.90;;
29380;SDS011;16364;52.490;13.326;2023-07-29T06:06:25;6.30;;;5.87;;
29380;SDS011;16364;52.490;13.326;2023-07-29T06:08:50;6.80;;;6.27;;
29380;SDS011;16364;52.490;13.326;2023-07-29T06:11:15;5.60;;;5.23;;
29380;SDS011;16364;52.490;13.326;2023-07-29T06:13:41;5.80;;;5.40;;
29380;SDS011;16364;52.490;13.326;2023-07-29T06:16:06;5.83;;;5.33;;
29380;SDS011;16364;52.490;13.326;2023-07-29T06:18:32;4.23;;;3.93;;
29380;SDS011;16364;52.490;13.326;2023-07-29T06:20:57;5.30;;;4.90;;
29380;SDS011;16364;52.490;13.326;2023-07-29T06:23:22;5.53;;;5.00;;
29380;SDS011;16364;52.490;13.326;2023-07-29T06:25:47;5.70;;;5.20;;
29380;SDS011;16364;52.490;13.326;2023-07-29T06:28:13;4.83;;;4.47;;
29380;SDS011;16364;52.490;13.326;2023-07-29T06:30:38;4.90;;;4.50;;
29380;SDS011;16364;52.490;13.326;2023-07-29T06:33:03;5.57;;;5.17;;
29380;SDS011;16364;52.490;13.326;2023-07-29T06:35:29;5.93;;;5.53;;
29380;SDS011;16364;52.490;13.326;2023-07-29T06:37:54;6.67;;;6.17;;
29380;SDS011;16364;52.490;13.326;2023-07-29T06:40:19;4.90;;;4.43;;
29380;SDS011;16364;52.490;13.326;2023-07-29T06:42:44;5.03;;;4.63;;
29380;SDS011;16364;52.490;13.326;2023-07-29T06:45:10;5.43;;;5.03;;
29380;SDS011;16364;52.490;13.326;2023-07-29T06:47:35;6.30;;;5.73;;
29380;SDS011;16364;52.490;13.326;2023-07-29T06:50:01;5.57;;;5.17;;
29380;SDS011;16364;52.490;13.326;2023-07-29T06:52:26;5.23;;;4.83;;
29380;SDS011;16364;52.490;13.326;2023-07-29T06:54:51;5.10;;;4.70;;
29380;SDS011;16364;52.490;13.326;2023-07-29T06:57:16;5.33;;;4.90;;
29380;SDS011;16364;52.490;13.326;2023-07-29T06:59:42;6.47;;;5.97;;
29380;SDS011;16364;52.490;13.326;2023-07-29T07:02:07;5.07;;;4.77;;
29380;SDS011;16364;52.490;13.326;2023-07-29T07:04:32;4.90;;;4.47;;
29380;SDS011;16364;52.490;13.326;2023-07-29T07:06:58;4.93;;;4.63;;
29380;SDS011;16364;52.490;13.326;2023-07-29T07:09:23;4.37;;;4.17;;
29380;SDS011;16364;52.490;13.326;2023-07-29T07:11:48;4.37;;;4.07;;
29380;SDS011;16364;52.490;13.326;2023-07-29T07:14:13;4.90;;;4.40;;
29380;SDS011;16364;52.490;13.326;2023-07-29T07:16:39;5.17;;;4.77;;
29380;SDS011;16364;52.490;13.326;2023-07-29T07:19:04;4.43;;;4.13;;
29380;SDS011;16364;52.490;13.326;2023-07-29T07:21:29;4.17;;;3.87;;
29380;SDS011;16364;52.490;13.326;2023-07-29T07:23:55;4.83;;;4.50;;
29380;SDS011;16364;52.490;13.326;2023-07-29T07:26:20;4.13;;;3.73;;
29380;SDS011;16364;52.490;13.326;2023-07-29T07:28:45;4.53;;;4.13;;
29380;SDS011;16364;52.490;13.326;2023-07-29T07:31:10;3.83;;;3.53;;
29380;SDS011;16364;52.490;13.326;2023-07-29T07:33:36;6.20;;;4.83;;
29380;SDS011;16364;52.490;13.326;2023-07-29T07:36:01;4.37;;;3.97;;
29380;SDS011;16364;52.490;13.326;2023-07-29T07:38:26;4.07;;;3.77;;
29380;SDS011;16364;52.490;13.326;2023-07-29T07:40:57;4.30;;;3.53;;
29380;SDS011;16364;52.490;13.326;2023-07-29T07:43:23;3.47;;;3.20;;
29380;SDS011;16364;52.490;13.326;2023-07-29T07:45:48;4.30;;;4.00;;
29380;SDS011;16364;52.490;13.326;2023-07-29T07:48:14;3.77;;;3.47;;
29380;SDS011;16364;52.490;13.326;2023-07-29T07:50:41;4.07;;;3.77;;
29380;SDS011;16364;52.490;13.326;2023-07-29T07:53:06;4.73;;;4.43;;
29380;SDS011;16364;52.490;13.326;2023-07-29T07:55:31;3.10;;;2.90;;
29380;SDS011;16364;52.490;13.326;2023-07-29T07:57:57;3.73;;;3.53;;
29380;SDS011;16364;52.490;13.326;2023-07-29T08:00:22;3.37;;;3.17;;
29380;SDS011;16364;52.490;13.326;2023-07-29T08:02:47;4.87;;;4.23;;
29380;SDS011;16364;52.490;13.326;2023-07-29T08:05:12;4.50;;;3.53;;
29380;SDS011;16364;52.490;13.326;2023-07-29T08:07:38;3.50;;;3.30;;
29380;SDS011;16364;52.490;13.326;2023-07-29T08:10:03;4.27;;;2.97;;
29380;SDS011;16364;52.490;13.326;2023-07-29T08:12:28;3.10;;;2.90;;
29380;SDS011;16364;52.490;13.326;2023-07-29T08:14:54;3.50;;;3.30;;
29380;SDS011;16364;52.490;13.326;2023-07-29T08:17:19;3.60;;;3.30;;
29380;SDS011;16364;52.490;13.326;2023-07-29T08:19:44;3.60;;;3.40;;
29380;SDS011;16364;52.490;13.326;2023-07-29T08:22:09;3.10;;;2.90;;
29380;SDS011;16364;52.490;13.326;2023-07-29T08:24:34;3.47;;;3.17;;
29380;SDS011;16364;52.490;13.326;2023-07-29T08:27:00;3.23;;;3.03;;
29380;SDS011;16364;52.490;13.326;2023-07-29T08:29:25;2.90;;;2.70;;
29380;SDS011;16364;52.490;13.326;2023-07-29T08:31:50;2.60;;;2.40;;
29380;SDS011;16364;52.490;13.326;2023-07-29T08:34:16;2.90;;;2.70;;
29380;SDS011;16364;52.490;13.326;2023-07-29T08:36:42;2.50;;;2.30;;
29380;SDS011;16364;52.490;13.326;2023-07-29T08:39:07;3.30;;;2.80;;
29380;SDS011;16364;52.490;13.326;2023-07-29T08:41:34;3.10;;;2.90;;
29380;SDS011;16364;52.490;13.326;2023-07-29T08:44:09;2.77;;;2.57;;
29380;SDS011;16364;52.490;13.326;2023-07-29T08:46:34;3.00;;;2.60;;
29380;SDS011;16364;52.490;13.326;2023-07-29T08:49:00;3.27;;;3.07;;
29380;SDS011;16364;52.490;13.326;2023-07-29T08:51:26;2.90;;;2.70;;
29380;SDS011;16364;52.490;13.326;2023-07-29T08:53:52;2.93;;;2.73;;
29380;SDS011;16364;52.490;13.326;2023-07-29T08:56:17;3.13;;;2.83;;
29380;SDS011;16364;52.490;13.326;2023-07-29T08:58:43;3.80;;;2.73;;
29380;SDS011;16364;52.490;13.326;2023-07-29T09:01:08;2.93;;;2.73;;
29380;SDS011;16364;52.490;13.326;2023-07-29T09:03:33;3.33;;;3.03;;
29380;SDS011;16364;52.490;13.326;2023-07-29T09:05:58;3.20;;;3.00;;
29380;SDS011;16364;52.490;13.326;2023-07-29T09:08:25;2.47;;;2.27;;
29380;SDS011;16364;52.490;13.326;2023-07-29T09:10:50;3.17;;;2.20;;
29380;SDS011;16364;52.490;13.326;2023-07-29T09:13:16;2.33;;;2.23;;
29380;SDS011;16364;52.490;13.326;2023-07-29T09:15:41;2.40;;;2.30;;
29380;SDS011;16364;52.490;13.326;2023-07-29T09:18:11;2.53;;;2.33;;
29380;SDS011;16364;52.490;13.326;2023-07-29T09:20:37;2.30;;;2.20;;
29380;SDS011;16364;52.490;13.326;2023-07-29T09:23:02;2.53;;;2.40;;
29380;SDS011;16364;52.490;13.326;2023-07-29T09:25:29;2.37;;;2.17;;
29380;SDS011;16364;52.490;13.326;2023-07-29T09:28:00;2.13;;;2.00;;
29380;SDS011;16364;52.490;13.326;2023-07-29T09:30:26;2.30;;;2.20;;
29380;SDS011;16364;52.490;13.326;2023-07-29T09:32:54;3.17;;;2.97;;
29380;SDS011;16364;52.490;13.326;2023-07-29T09:35:20;2.13;;;2.03;;
29380;SDS011;16364;52.490;13.326;2023-07-29T09:37:45;2.70;;;2.50;;
29380;SDS011;16364;52.490;13.326;2023-07-29T09:40:13;2.93;;;2.73;;
29380;SDS011;16364;52.490;13.326;2023-07-29T09:42:39;2.30;;;2.13;;
29380;SDS011;16364;52.490;13.326;2023-07-29T09:45:04;2.13;;;2.03;;
29380;SDS011;16364;52.490;13.326;2023-07-29T09:47:29;2.20;;;2.00;;
29380;SDS011;16364;52.490;13.326;2023-07-29T09:49:54;2.30;;;2.10;;
29380;SDS011;16364;52.490;13.326;2023-07-29T09:52:21;2.17;;;2.07;;
29380;SDS011;16364;52.490;13.326;2023-07-29T09:54:47;2.07;;;1.97;;
29380;SDS011;16364;52.490;13.326;2023-07-29T09:57:17;2.80;;;2.10;;
29380;SDS011;16364;52.490;13.326;2023-07-29T09:59:43;1.90;;;1.80;;
29380;SDS011;16364;52.490;13.326;2023-07-29T10:02:17;2.20;;;2.10;;
29380;SDS011;16364;52.490;13.326;2023-07-29T10:04:43;2.70;;;2.30;;
29380;SDS011;16364;52.490;13.326;2023-07-29T10:07:11;2.30;;;2.10;;
29380;SDS011;16364;52.490;13.326;2023-07-29T10:09:37;2.30;;;2.10;;
29380;SDS011;16364;52.490;13.326;2023-07-29T10:12:03;2.30;;;2.10;;
29380;SDS011;16364;52.490;13.326;2023-07-29T10:14:30;1.90;;;1.80;;
29380;SDS011;16364;52.490;13.326;2023-07-29T10:16:56;3.40;;;3.20;;
29380;SDS011;16364;52.490;13.326;2023-07-29T10:19:22;1.70;;;1.60;;
29380;SDS011;16364;52.490;13.326;2023-07-29T10:21:48;2.47;;;2.30;;
29380;SDS011;16364;52.490;13.326;2023-07-29T10:24:15;2.47;;;2.27;;
29380;SDS011;16364;52.490;13.326;2023-07-29T10:26:43;2.40;;;2.20;;
29380;SDS011;16364;52.490;13.326;2023-07-29T10:29:10;1.80;;;1.70;;
29380;SDS011;16364;52.490;13.326;2023-07-29T10:31:37;1.97;;;1.87;;
29380;SDS011;16364;52.490;13.326;2023-07-29T10:34:04;2.07;;;1.97;;
29380;SDS011;16364;52.490;13.326;2023-07-29T10:36:29;3.00;;;2.00;;
29380;SDS011;16364;52.490;13.326;2023-07-29T10:38:55;1.90;;;1.80;;
29380;SDS011;16364;52.490;13.326;2023-07-29T10:41:20;1.90;;;1.80;;
29380;SDS011;16364;52.490;13.326;2023-07-29T10:43:45;1.87;;;1.77;;
29380;SDS011;16364;52.490;13.326;2023-07-29T10:46:20;1.97;;;1.87;;
29380;SDS011;16364;52.490;13.326;2023-07-29T10:53:52;1.90;;;1.70;;
29380;SDS011;16364;52.490;13.326;2023-07-29T10:56:28;3.00;;;1.80;;
29380;SDS011;16364;52.490;13.326;2023-07-29T10:58:57;2.30;;;2.10;;
29380;SDS011;16364;52.490;13.326;2023-07-29T11:01:26;2.10;;;1.90;;
29380;SDS011;16364;52.490;13.326;2023-07-29T11:07:01;4.17;;;1.57;;
29380;SDS011;16364;52.490;13.326;2023-07-29T11:12:33;1.80;;;1.60;;
29380;SDS011;16364;52.490;13.326;2023-07-29T11:14:51;3.73;;;1.67;;
29380;SDS011;16364;52.490;13.326;2023-07-29T11:17:16;1.47;;;0.90;;
29380;SDS011;16364;52.490;13.326;2023-07-29T11:19:42;2.73;;;0.80;;
29380;SDS011;16364;52.490;13.326;2023-07-29T11:22:09;1.80;;;1.27;;
29380;SDS011;16364;52.490;13.326;2023-07-29T11:24:34;1.10;;;1.00;;
29380;SDS011;16364;52.490;13.326;2023-07-29T11:26:59;1.57;;;1.10;;
29380;SDS011;16364;52.490;13.326;2023-07-29T11:29:25;0.97;;;0.90;;
29380;SDS011;16364;52.490;13.326;2023-07-29T11:31:50;1.37;;;1.10;;
29380;SDS011;16364;52.490;13.326;2023-07-29T11:34:16;2.90;;;1.23;;
29380;SDS011;16364;52.490;13.326;2023-07-29T11:36:45;2.03;;;1.10;;
29380;SDS011;16364;52.490;13.326;2023-07-29T11:39:10;1.10;;;1.00;;
29380;SDS011;16364;52.490;13.326;2023-07-29T11:41:36;2.80;;;1.30;;
29380;SDS011;16364;52.490;13.326;2023-07-29T11:44:02;1.67;;;1.20;;
29380;SDS011;16364;52.490;13.326;2023-07-29T11:46:27;1.67;;;1.17;;
29380;SDS011;16364;52.490;13.326;2023-07-29T11:48:53;1.27;;;1.17;;
29380;SDS011;16364;52.490;13.326;2023-07-29T11:51:19;2.00;;;1.33;;
29380;SDS011;16364;52.490;13.326;2023-07-29T11:53:44;1.20;;;1.00;;
29380;SDS011;16364;52.490;13.326;2023-07-29T11:56:10;2.30;;;1.20;;
29380;SDS011;16364;52.490;13.326;2023-07-29T11:58:36;1.73;;;1.00;;
29380;SDS011;16364;52.490;13.326;2023-07-29T12:01:01;1.30;;;1.20;;
29380;SDS011;16364;52.490;13.326;2023-07-29T12:03:28;1.33;;;1.23;;
29380;SDS011;16364;52.490;13.326;2023-07-29T12:05:53;1.77;;;1.47;;
29380;SDS011;16364;52.490;13.326;2023-07-29T12:08:19;2.83;;;1.40;;
29380;SDS011;16364;52.490;13.326;2023-07-29T12:10:44;1.67;;;1.57;;
29380;SDS011;16364;52.490;13.326;2023-07-29T12:13:10;1.70;;;1.60;;
29380;SDS011;16364;52.490;13.326;2023-07-29T12:15:37;1.43;;;1.30;;
29380;SDS011;16364;52.490;13.326;2023-07-29T12:18:03;1.53;;;1.43;;
29380;SDS011;16364;52.490;13.326;2023-07-29T12:20:29;1.73;;;1.60;;
29380;SDS011;16364;52.490;13.326;2023-07-29T12:22:58;1.77;;;1.67;;
29380;SDS011;16364;52.490;13.326;2023-07-29T12:25:24;3.00;;;1.90;;
29380;SDS011;16364;52.490;13.326;2023-07-29T12:27:50;1.70;;;1.60;;
29380;SDS011;16364;52.490;13.326;2023-07-29T12:30:15;1.63;;;1.53;;
29380;SDS011;16364;52.490;13.326;2023-07-29T12:32:45;2.13;;;1.63;;
29380;SDS011;16364;52.490;13.326;2023-07-29T12:35:11;2.40;;;2.20;;
29380;SDS011;16364;52.490;13.326;2023-07-29T12:37:36;2.43;;;2.23;;
29380;SDS011;16364;52.490;13.326;2023-07-29T12:40:03;3.47;;;2.47;;
29380;SDS011;16364;52.490;13.326;2023-07-29T12:42:29;3.43;;;2.37;;
29380;SDS011;16364;52.490;13.326;2023-07-29T12:44:54;2.83;;;2.10;;
29380;SDS011;16364;52.490;13.326;2023-07-29T12:47:19;2.50;;;2.30;;
29380;SDS011;16364;52.490;13.326;2023-07-29T12:49:45;2.53;;;2.33;;
29380;SDS011;16364;52.490;13.326;2023-07-29T12:52:10;3.07;;;2.80;;
29380;SDS011;16364;52.490;13.326;2023-07-29T12:54:35;2.90;;;2.70;;
29380;SDS011;16364;52.490;13.326;2023-07-29T12:57:00;2.53;;;2.30;;
29380;SDS011;16364;52.490;13.326;2023-07-29T12:59:25;2.53;;;2.33;;
29380;SDS011;16364;52.490;13.326;2023-07-29T13:01:51;2.50;;;2.30;;
29380;SDS011;16364;52.490;13.326;2023-07-29T13:04:16;2.93;;;2.73;;
29380;SDS011;16364;52.490;13.326;2023-07-29T13:06:41;2.73;;;2.53;;
29380;SDS011;16364;52.490;13.326;2023-07-29T13:09:06;2.90;;;2.70;;
29380;SDS011;16364;52.490;13.326;2023-07-29T13:11:32;2.90;;;2.70;;
29380;SDS011;16364;52.490;13.326;2023-07-29T13:13:58;2.57;;;2.37;;
29380;SDS011;16364;52.490;13.326;2023-07-29T13:16:23;3.23;;;2.93;;
29380;SDS011;16364;52.490;13.326;2023-07-29T13:18:48;2.80;;;2.60;;
29380;SDS011;16364;52.490;13.326;2023-07-29T13:21:13;2.80;;;2.60;;
29380;SDS011;16364;52.490;13.326;2023-07-29T13:23:38;3.03;;;2.83;;
29380;SDS011;16364;52.490;13.326;2023-07-29T13:26:04;2.80;;;2.60;;
29380;SDS011;16364;52.490;13.326;2023-07-29T13:28:29;3.03;;;2.40;;
29380;SDS011;16364;52.490;13.326;2023-07-29T13:30:54;3.10;;;2.90;;
29380;SDS011;16364;52.490;13.326;2023-07-29T13:33:19;2.60;;;2.40;;
29380;SDS011;16364;52.490;13.326;2023-07-29T13:35:45;2.40;;;2.20;;
29380;SDS011;16364;52.490;13.326;2023-07-29T13:38:10;2.00;;;1.90;;
29380;SDS011;16364;52.490;13.326;2023-07-29T13:40:36;2.20;;;2.00;;
29380;SDS011;16364;52.490;13.326;2023-07-29T13:43:01;2.20;;;2.10;;
29380;SDS011;16364;52.490;13.326;2023-07-29T13:45:26;1.73;;;1.63;;
29380;SDS011;16364;52.490;13.326;2023-07-29T13:47:51;1.60;;;1.50;;
29380;SDS011;16364;52.490;13.326;2023-07-29T13:50:17;1.77;;;1.67;;
29380;SDS011;16364;52.490;13.326;2023-07-29T13:52:43;2.13;;;1.40;;
29380;SDS011;16364;52.490;13.326;2023-07-29T13:55:09;1.43;;;1.33;;
29380;SDS011;16364;52.490;13.326;2023-07-29T13:57:35;1.57;;;1.47;;
29380;SDS011;16364;52.490;13.326;2023-07-29T14:00:00;2.20;;;1.80;;
29380;SDS011;16364;52.490;13.326;2023-07-29T14:02:25;2.00;;;1.30;;
29380;SDS011;16364;52.490;13.326;2023-07-29T14:04:56;2.27;;;1.60;;
29380;SDS011;16364;52.490;13.326;2023-07-29T14:07:21;1.50;;;1.40;;
29380;SDS011;16364;52.490;13.326;2023-07-29T14:09:46;1.77;;;1.67;;
29380;SDS011;16364;52.490;13.326;2023-07-29T14:12:12;1.93;;;1.40;;
29380;SDS011;16364;52.490;13.326;2023-07-29T14:14:39;1.80;;;1.20;;
29380;SDS011;16364;52.490;13.326;2023-07-29T14:17:05;1.40;;;1.30;;
29380;SDS011;16364;52.490;13.326;2023-07-29T14:19:31;1.70;;;1.60;;
29380;SDS011;16364;52.490;13.326;2023-07-29T14:21:56;2.27;;;1.57;;
29380;SDS011;16364;52.490;13.326;2023-07-29T14:24:21;1.50;;;1.40;;
29380;SDS011;16364;52.490;13.326;2023-07-29T14:26:47;1.67;;;1.30;;
29380;SDS011;16364;52.490;13.326;2023-07-29T14:29:13;1.40;;;1.30;;
29380;SDS011;16364;52.490;13.326;2023-07-29T14:31:38;1.37;;;1.27;;
29380;SDS011;16364;52.490;13.326;2023-07-29T14:34:03;2.07;;;1.50;;
29380;SDS011;16364;52.490;13.326;2023-07-29T14:36:28;2.57;;;1.50;;
29380;SDS011;16364;52.490;13.326;2023-07-29T14:38:53;1.67;;;1.40;;
29380;SDS011;16364;52.490;13.326;2023-07-29T14:41:19;1.40;;;1.30;;
29380;SDS011;16364;52.490;13.326;2023-07-29T14:43:44;1.40;;;1.30;;